sensor_id;sensor_type;location;lat;lon;timestamp;pressure;altitude;pressure_sealevel;temperature;humidity
13612;BME280;6877;51.436;6.774;2023-02-28T00:01:47;102602.94;;;-2.68;88.86
13612;BME280;6877;51.436;6.774;2023-02-28T00:04:13;102597.22;;;-2.77;89.65
13612;BME280;6877;51.436;6.774;2023-02-28T00:06:40;102607.31;;;-2.67;90.38
13612;BME280;6877;51.436;6.774;2023-02-28T00:09:13;102609.38;;;-2.62;90.04
13612;BME280;6877;51.436;6.774;2023-02-28T00:11:39;102601.09;;;-2.58;90.40
13612;BME280;6877;51.436;6.774;2023-02-28T00:14:05;102604.41;;;-2.59;90.18
13612;BME280;6877;51.436;6.774;2023-02-28T00:16:32;102602.84;;;-2.57;90.27
13612;BME280;6877;51.436;6.774;2023-02-28T00:18:58;102608.78;;;-2.71;89.90
13612;BME280;6877;51.436;6.774;2023-02-28T00:21:30;102606.31;;;-2.69;90.73
13612;BME280;6877;51.436;6.774;2023-02-28T00:24:01;102600.41;;;-2.55;91.17
13612;BME280;6877;51.436;6.774;2023-02-28T00:26:33;102608.88;;;-2.29;90.86
13612;BME280;6877;51.436;6.774;2023-02-28T00:29:04;102606.88;;;-2.20;90.05
13612;BME280;6877;51.436;6.774;2023-02-28T00:31:31;102603.41;;;-2.21;89.50
13612;BME280;6877;51.436;6.774;2023-02-28T00:34:02;102598.47;;;-2.18;89.51
13612;BME280;6877;51.436;6.774;2023-02-28T00:36:28;102616.31;;;-2.06;89.75
13612;BME280;6877;51.436;6.774;2023-02-28T00:38:55;102621.09;;;-1.84;88.83
13612;BME280;6877;51.436;6.774;2023-02-28T00:41:21;102614.28;;;-1.70;88.04
13612;BME280;6877;51.436;6.774;2023-02-28T00:43:48;102610.41;;;-1.64;87.36
13612;BME280;6877;51.436;6.774;2023-02-28T00:46:19;102610.41;;;-1.64;87.15
13612;BME280;6877;51.436;6.774;2023-02-28T00:48:46;102611.97;;;-1.66;87.21
13612;BME280;6877;51.436;6.774;2023-02-28T00:51:12;102613.56;;;-1.68;87.12
13612;BME280;6877;51.436;6.774;2023-02-28T00:53:43;102612.66;;;-1.68;87.05
13612;BME280;6877;51.436;6.774;2023-02-28T00:56:10;102617.13;;;-1.66;86.40
13612;BME280;6877;51.436;6.774;2023-02-28T00:58:37;102618.69;;;-1.68;86.65
13612;BME280;6877;51.436;6.774;2023-02-28T01:01:03;102622.75;;;-1.71;86.66
13612;BME280;6877;51.436;6.774;2023-02-28T01:03:35;102619.91;;;-1.76;86.79
13612;BME280;6877;51.436;6.774;2023-02-28T01:06:01;102622.00;;;-1.83;86.62
13612;BME280;6877;51.436;6.774;2023-02-28T01:08:32;102623.19;;;-1.78;86.70
13612;BME280;6877;51.436;6.774;2023-02-28T01:11:10;102633.53;;;-1.77;86.30
13612;BME280;6877;51.436;6.774;2023-02-28T01:13:37;102626.31;;;-1.69;86.25
13612;BME280;6877;51.436;6.774;2023-02-28T01:16:04;102634.28;;;-1.65;85.65
13612;BME280;6877;51.436;6.774;2023-02-28T01:18:36;102625.38;;;-1.56;85.17
13612;BME280;6877;51.436;6.774;2023-02-28T01:21:09;102634.25;;;-1.51;84.38
13612;BME280;6877;51.436;6.774;2023-02-28T01:23:36;102622.13;;;-1.54;84.25
13612;BME280;6877;51.436;6.774;2023-02-28T01:26:14;102631.06;;;-1.47;83.73
13612;BME280;6877;51.436;6.774;2023-02-28T01:28:48;102632.03;;;-1.45;83.22
13612;BME280;6877;51.436;6.774;2023-02-28T01:31:20;102629.38;;;-1.47;82.82
13612;BME280;6877;51.436;6.774;2023-02-28T01:33:52;102620.81;;;-1.47;82.90
13612;BME280;6877;51.436;6.774;2023-02-28T01:36:25;102632.56;;;-1.51;82.81
13612;BME280;6877;51.436;6.774;2023-02-28T01:38:56;102630.22;;;-1.61;83.04
13612;BME280;6877;51.436;6.774;2023-02-28T01:41:25;102626.75;;;-1.61;83.02
13612;BME280;6877;51.436;6.774;2023-02-28T01:46:20;102621.88;;;-1.72;83.25
13612;BME280;6877;51.436;6.774;2023-02-28T01:48:56;102622.94;;;-1.68;83.39
13612;BME280;6877;51.436;6.774;2023-02-28T01:51:30;102615.97;;;-1.84;83.58
13612;BME280;6877;51.436;6.774;2023-02-28T01:54:07;102618.34;;;-1.87;83.86
13612;BME280;6877;51.436;6.774;2023-02-28T01:56:49;102619.63;;;-1.80;83.43
13612;BME280;6877;51.436;6.774;2023-02-28T01:59:27;102617.41;;;-1.89;83.89
13612;BME280;6877;51.436;6.774;2023-02-28T02:02:01;102612.53;;;-1.84;83.79
13612;BME280;6877;51.436;6.774;2023-02-28T02:04:35;102608.91;;;-1.88;83.78
13612;BME280;6877;51.436;6.774;2023-02-28T02:07:04;102604.84;;;-1.84;83.45
13612;BME280;6877;51.436;6.774;2023-02-28T02:09:35;102610.09;;;-1.96;84.12
13612;BME280;6877;51.436;6.774;2023-02-28T02:15:29;102594.22;;;-2.04;84.78
13612;BME280;6877;51.436;6.774;2023-02-28T02:18:04;102592.81;;;-1.99;84.54
13612;BME280;6877;51.436;6.774;2023-02-28T02:23:46;102588.09;;;-2.06;84.65
13612;BME280;6877;51.436;6.774;2023-02-28T02:37:29;102580.38;;;-2.47;86.37
13612;BME280;6877;51.436;6.774;2023-02-28T02:45:27;102580.66;;;-2.56;87.09
13612;BME280;6877;51.436;6.774;2023-02-28T02:47:56;102577.63;;;-2.64;87.42
13612;BME280;6877;51.436;6.774;2023-02-28T02:50:35;102582.25;;;-2.71;87.40
13612;BME280;6877;51.436;6.774;2023-02-28T02:53:05;102580.06;;;-2.78;87.86
13612;BME280;6877;51.436;6.774;2023-02-28T02:55:41;102585.41;;;-2.75;88.35
13612;BME280;6877;51.436;6.774;2023-02-28T02:58:16;102583.31;;;-2.81;88.10
13612;BME280;6877;51.436;6.774;2023-02-28T03:00:52;102591.31;;;-2.90;88.23
13612;BME280;6877;51.436;6.774;2023-02-28T03:03:21;102593.34;;;-3.11;88.42
13612;BME280;6877;51.436;6.774;2023-02-28T03:06:17;102595.34;;;-3.32;89.19
13612;BME280;6877;51.436;6.774;2023-02-28T03:08:48;102589.34;;;-3.32;90.16
13612;BME280;6877;51.436;6.774;2023-02-28T03:11:16;102591.28;;;-3.41;89.73
13612;BME280;6877;51.436;6.774;2023-02-28T03:14:11;102587.16;;;-3.39;90.94
13612;BME280;6877;51.436;6.774;2023-02-28T03:22:58;102578.28;;;-3.44;91.72
13612;BME280;6877;51.436;6.774;2023-02-28T03:28:18;102573.97;;;-3.32;91.40
13612;BME280;6877;51.436;6.774;2023-02-28T03:31:00;102575.41;;;-3.24;91.97
13612;BME280;6877;51.436;6.774;2023-02-28T03:36:13;102586.03;;;-3.18;91.38
13612;BME280;6877;51.436;6.774;2023-02-28T03:38:53;102590.38;;;-3.17;91.75
13612;BME280;6877;51.436;6.774;2023-02-28T03:41:24;102590.53;;;-3.27;91.43
13612;BME280;6877;51.436;6.774;2023-02-28T03:44:04;102593.56;;;-3.33;91.74
13612;BME280;6877;51.436;6.774;2023-02-28T03:46:42;102595.31;;;-3.45;91.68
13612;BME280;6877;51.436;6.774;2023-02-28T03:49:17;102595.44;;;-3.43;92.40
13612;BME280;6877;51.436;6.774;2023-02-28T03:51:52;102599.97;;;-3.39;92.90
13612;BME280;6877;51.436;6.774;2023-02-28T03:54:29;102593.78;;;-3.55;92.53
13612;BME280;6877;51.436;6.774;2023-02-28T03:57:03;102595.34;;;-3.57;93.28
13612;BME280;6877;51.436;6.774;2023-02-28T03:59:42;102592.13;;;-3.54;93.59
13612;BME280;6877;51.436;6.774;2023-02-28T04:02:15;102595.00;;;-3.50;93.82
13612;BME280;6877;51.436;6.774;2023-02-28T04:04:46;102594.50;;;-3.44;93.79
13612;BME280;6877;51.436;6.774;2023-02-28T04:07:19;102591.88;;;-3.45;93.26
13612;BME280;6877;51.436;6.774;2023-02-28T04:09:45;102593.06;;;-3.40;93.54
13612;BME280;6877;51.436;6.774;2023-02-28T04:12:12;102594.44;;;-3.45;92.83
13612;BME280;6877;51.436;6.774;2023-02-28T04:14:38;102591.44;;;-3.52;93.45
13612;BME280;6877;51.436;6.774;2023-02-28T04:17:04;102591.25;;;-3.55;93.15
13612;BME280;6877;51.436;6.774;2023-02-28T04:19:36;102590.81;;;-3.61;93.06
13612;BME280;6877;51.436;6.774;2023-02-28T04:22:02;102596.47;;;-3.78;92.68
13612;BME280;6877;51.436;6.774;2023-02-28T04:24:29;102595.06;;;-3.98;93.14
13612;BME280;6877;51.436;6.774;2023-02-28T04:27:00;102597.31;;;-4.03;93.79
13612;BME280;6877;51.436;6.774;2023-02-28T04:29:32;102593.16;;;-4.01;94.72
13612;BME280;6877;51.436;6.774;2023-02-28T04:32:03;102600.50;;;-3.93;94.57
13612;BME280;6877;51.436;6.774;2023-02-28T04:34:31;102598.38;;;-3.87;94.70
13612;BME280;6877;51.436;6.774;2023-02-28T04:37:03;102604.00;;;-3.80;94.11
13612;BME280;6877;51.436;6.774;2023-02-28T04:39:36;102593.06;;;-3.65;93.52
13612;BME280;6877;51.436;6.774;2023-02-28T04:42:03;102598.69;;;-3.58;93.13
13612;BME280;6877;51.436;6.774;2023-02-28T04:44:30;102605.34;;;-3.48;92.49
13612;BME280;6877;51.436;6.774;2023-02-28T04:47:01;102608.28;;;-3.55;92.44
13612;BME280;6877;51.436;6.774;2023-02-28T04:49:32;102609.94;;;-3.56;92.40
13612;BME280;6877;51.436;6.774;2023-02-28T04:51:59;102605.25;;;-3.50;92.13
13612;BME280;6877;51.436;6.774;2023-02-28T04:54:30;102605.47;;;-3.46;91.91
13612;BME280;6877;51.436;6.774;2023-02-28T04:56:57;102609.56;;;-3.48;91.77
13612;BME280;6877;51.436;6.774;2023-02-28T04:59:23;102610.09;;;-3.41;91.26
13612;BME280;6877;51.436;6.774;2023-02-28T05:01:49;102605.66;;;-3.43;90.78
13612;BME280;6877;51.436;6.774;2023-02-28T05:04:21;102605.88;;;-3.40;90.59
13612;BME280;6877;51.436;6.774;2023-02-28T05:06:47;102611.28;;;-3.36;90.25
13612;BME280;6877;51.436;6.774;2023-02-28T05:09:18;102614.94;;;-3.32;89.92
13612;BME280;6877;51.436;6.774;2023-02-28T05:11:50;102612.28;;;-3.34;89.34
13612;BME280;6877;51.436;6.774;2023-02-28T05:14:16;102611.78;;;-3.28;89.36
13612;BME280;6877;51.436;6.774;2023-02-28T05:16:48;102614.00;;;-3.21;88.52
13612;BME280;6877;51.436;6.774;2023-02-28T05:19:19;102617.53;;;-3.19;88.55
13612;BME280;6877;51.436;6.774;2023-02-28T05:21:52;102615.06;;;-3.31;88.60
13612;BME280;6877;51.436;6.774;2023-02-28T05:24:19;102618.09;;;-3.36;89.17
13612;BME280;6877;51.436;6.774;2023-02-28T05:26:50;102615.56;;;-3.48;89.62
13612;BME280;6877;51.436;6.774;2023-02-28T05:29:18;102624.13;;;-3.47;89.82
13612;BME280;6877;51.436;6.774;2023-02-28T05:31:50;102623.72;;;-3.54;89.87
13612;BME280;6877;51.436;6.774;2023-02-28T05:34:21;102629.72;;;-3.53;90.59
13612;BME280;6877;51.436;6.774;2023-02-28T05:36:52;102623.00;;;-3.64;89.97
13612;BME280;6877;51.436;6.774;2023-02-28T05:39:19;102622.88;;;-3.66;90.77
13612;BME280;6877;51.436;6.774;2023-02-28T05:41:45;102627.25;;;-3.77;90.91
13612;BME280;6877;51.436;6.774;2023-02-28T05:44:11;102630.69;;;-3.76;91.06
13612;BME280;6877;51.436;6.774;2023-02-28T05:46:38;102630.75;;;-3.63;90.90
13612;BME280;6877;51.436;6.774;2023-02-28T05:49:10;102636.41;;;-3.55;89.98
13612;BME280;6877;51.436;6.774;2023-02-28T05:51:41;102632.41;;;-3.52;89.87
13612;BME280;6877;51.436;6.774;2023-02-28T05:54:12;102630.84;;;-3.50;89.08
13612;BME280;6877;51.436;6.774;2023-02-28T05:56:39;102641.09;;;-3.50;89.14
13612;BME280;6877;51.436;6.774;2023-02-28T05:59:06;102637.72;;;-3.48;89.07
13612;BME280;6877;51.436;6.774;2023-02-28T06:01:43;102646.75;;;-3.54;89.19
13612;BME280;6877;51.436;6.774;2023-02-28T06:04:16;102645.78;;;-3.56;89.24
13612;BME280;6877;51.436;6.774;2023-02-28T06:06:46;102639.13;;;-3.65;88.81
13612;BME280;6877;51.436;6.774;2023-02-28T06:09:18;102646.81;;;-3.65;89.22
13612;BME280;6877;51.436;6.774;2023-02-28T06:11:50;102647.78;;;-3.63;88.93
13612;BME280;6877;51.436;6.774;2023-02-28T06:14:21;102645.34;;;-3.62;88.56
13612;BME280;6877;51.436;6.774;2023-02-28T06:16:48;102644.19;;;-3.54;87.48
13612;BME280;6877;51.436;6.774;2023-02-28T06:19:19;102653.13;;;-3.35;85.80
13612;BME280;6877;51.436;6.774;2023-02-28T06:21:49;102658.31;;;-3.22;84.81
13612;BME280;6877;51.436;6.774;2023-02-28T06:24:16;102658.31;;;-3.22;84.26
13612;BME280;6877;51.436;6.774;2023-02-28T06:26:43;102660.19;;;-3.19;84.04
13612;BME280;6877;51.436;6.774;2023-02-28T06:29:14;102659.59;;;-3.15;83.31
13612;BME280;6877;51.436;6.774;2023-02-28T06:31:49;102668.81;;;-3.06;82.51
13612;BME280;6877;51.436;6.774;2023-02-28T06:34:16;102662.91;;;-3.05;82.31
13612;BME280;6877;51.436;6.774;2023-02-28T06:36:43;102662.50;;;-3.11;82.73
13612;BME280;6877;51.436;6.774;2023-02-28T06:39:15;102671.78;;;-2.99;81.96
13612;BME280;6877;51.436;6.774;2023-02-28T06:41:46;102673.78;;;-2.95;81.57
13612;BME280;6877;51.436;6.774;2023-02-28T06:44:17;102668.84;;;-2.92;81.54
13612;BME280;6877;51.436;6.774;2023-02-28T06:46:44;102670.94;;;-2.87;81.17
13612;BME280;6877;51.436;6.774;2023-02-28T06:49:16;102674.38;;;-2.86;81.08
13612;BME280;6877;51.436;6.774;2023-02-28T06:51:48;102673.19;;;-2.91;81.50
13612;BME280;6877;51.436;6.774;2023-02-28T06:54:14;102683.84;;;-2.85;81.10
13612;BME280;6877;51.436;6.774;2023-02-28T06:56:46;102681.69;;;-2.79;80.88
13612;BME280;6877;51.436;6.774;2023-02-28T06:59:13;102675.28;;;-2.72;80.41
13612;BME280;6877;51.436;6.774;2023-02-28T07:01:40;102680.22;;;-2.62;79.84
13612;BME280;6877;51.436;6.774;2023-02-28T07:04:11;102681.16;;;-2.62;79.71
13612;BME280;6877;51.436;6.774;2023-02-28T07:06:39;102686.28;;;-2.62;79.79
13612;BME280;6877;51.436;6.774;2023-02-28T07:09:05;102685.00;;;-2.55;79.42
13612;BME280;6877;51.436;6.774;2023-02-28T07:11:32;102683.72;;;-2.48;78.86
13612;BME280;6877;51.436;6.774;2023-02-28T07:13:58;102682.13;;;-2.46;78.93
13612;BME280;6877;51.436;6.774;2023-02-28T07:16:30;102679.00;;;-2.42;78.79
13612;BME280;6877;51.436;6.774;2023-02-28T07:18:56;102680.66;;;-2.43;78.58
13612;BME280;6877;51.436;6.774;2023-02-28T07:21:27;102681.84;;;-2.38;78.23
13612;BME280;6877;51.436;6.774;2023-02-28T07:23:55;102684.94;;;-2.30;77.89
13612;BME280;6877;51.436;6.774;2023-02-28T07:26:22;102688.84;;;-2.22;77.58
13612;BME280;6877;51.436;6.774;2023-02-28T07:28:49;102690.81;;;-2.18;77.16
13612;BME280;6877;51.436;6.774;2023-02-28T07:31:21;102695.25;;;-2.15;77.40
13612;BME280;6877;51.436;6.774;2023-02-28T07:33:47;102687.88;;;-2.11;76.92
13612;BME280;6877;51.436;6.774;2023-02-28T07:36:15;102698.81;;;-2.00;76.17
13612;BME280;6877;51.436;6.774;2023-02-28T07:38:48;102697.53;;;-1.93;76.37
13612;BME280;6877;51.436;6.774;2023-02-28T07:41:22;102703.22;;;-1.84;75.11
13612;BME280;6877;51.436;6.774;2023-02-28T07:43:55;102698.50;;;-1.78;74.64
13612;BME280;6877;51.436;6.774;2023-02-28T07:46:23;102702.25;;;-1.73;74.56
13612;BME280;6877;51.436;6.774;2023-02-28T07:48:54;102697.31;;;-1.70;74.59
13612;BME280;6877;51.436;6.774;2023-02-28T07:51:25;102701.03;;;-1.65;74.66
13612;BME280;6877;51.436;6.774;2023-02-28T07:53:57;102703.22;;;-1.57;74.62
13612;BME280;6877;51.436;6.774;2023-02-28T07:56:28;102710.38;;;-1.52;74.44
13612;BME280;6877;51.436;6.774;2023-02-28T07:59:00;102706.31;;;-1.48;73.83
13612;BME280;6877;51.436;6.774;2023-02-28T08:01:32;102707.41;;;-1.45;74.08
13612;BME280;6877;51.436;6.774;2023-02-28T08:03:59;102706.19;;;-1.36;73.62
13612;BME280;6877;51.436;6.774;2023-02-28T08:06:30;102712.69;;;-1.28;73.48
13612;BME280;6877;51.436;6.774;2023-02-28T08:08:56;102712.38;;;-1.20;73.10
13612;BME280;6877;51.436;6.774;2023-02-28T08:11:24;102718.63;;;-0.86;72.53
13612;BME280;6877;51.436;6.774;2023-02-28T08:13:55;102707.06;;;1.24;69.09
13612;BME280;6877;51.436;6.774;2023-02-28T08:16:27;102706.41;;;5.09;55.63
13612;BME280;6877;51.436;6.774;2023-02-28T08:18:58;102700.63;;;8.55;45.25
13612;BME280;6877;51.436;6.774;2023-02-28T08:21:24;102711.31;;;10.79;38.28
13612;BME280;6877;51.436;6.774;2023-02-28T08:23:56;102701.28;;;12.28;34.61
13612;BME280;6877;51.436;6.774;2023-02-28T08:26:23;102696.38;;;13.89;31.31
13612;BME280;6877;51.436;6.774;2023-02-28T08:28:49;102701.19;;;15.15;28.76
13612;BME280;6877;51.436;6.774;2023-02-28T08:31:20;102702.78;;;15.42;27.05
13612;BME280;6877;51.436;6.774;2023-02-28T08:33:53;102706.94;;;15.74;25.54
13612;BME280;6877;51.436;6.774;2023-02-28T08:36:23;102710.25;;;14.67;27.47
13612;BME280;6877;51.436;6.774;2023-02-28T08:38:49;102713.66;;;14.95;26.22
13612;BME280;6877;51.436;6.774;2023-02-28T08:41:16;102706.56;;;15.01;25.49
13612;BME280;6877;51.436;6.774;2023-02-28T08:43:47;102703.94;;;15.01;25.57
13612;BME280;6877;51.436;6.774;2023-02-28T08:46:14;102707.53;;;14.88;25.99
13612;BME280;6877;51.436;6.774;2023-02-28T08:48:46;102708.34;;;15.01;25.17
13612;BME280;6877;51.436;6.774;2023-02-28T08:51:15;102710.41;;;13.29;26.87
13612;BME280;6877;51.436;6.774;2023-02-28T08:53:48;102703.78;;;15.24;25.34
13612;BME280;6877;51.436;6.774;2023-02-28T08:56:22;102698.97;;;15.80;24.06
13612;BME280;6877;51.436;6.774;2023-02-28T08:58:49;102700.59;;;15.93;23.31
13612;BME280;6877;51.436;6.774;2023-02-28T09:01:24;102701.75;;;16.50;22.48
13612;BME280;6877;51.436;6.774;2023-02-28T09:03:51;102693.38;;;15.04;23.77
13612;BME280;6877;51.436;6.774;2023-02-28T09:06:19;102693.97;;;15.45;23.91
13612;BME280;6877;51.436;6.774;2023-02-28T09:08:46;102694.72;;;15.61;24.04
13612;BME280;6877;51.436;6.774;2023-02-28T09:11:13;102691.13;;;15.74;23.41
13612;BME280;6877;51.436;6.774;2023-02-28T09:13:45;102684.72;;;15.95;22.61
13612;BME280;6877;51.436;6.774;2023-02-28T09:16:13;102687.56;;;16.58;21.58
13612;BME280;6877;51.436;6.774;2023-02-28T09:18:40;102680.56;;;16.53;20.83
13612;BME280;6877;51.436;6.774;2023-02-28T09:21:09;102688.53;;;16.50;20.97
13612;BME280;6877;51.436;6.774;2023-02-28T09:23:35;102687.44;;;16.66;21.08
13612;BME280;6877;51.436;6.774;2023-02-28T09:26:04;102685.38;;;16.91;21.11
13612;BME280;6877;51.436;6.774;2023-02-28T09:28:31;102672.78;;;16.40;20.07
13612;BME280;6877;51.436;6.774;2023-02-28T09:30:57;102684.22;;;16.41;20.82
13612;BME280;6877;51.436;6.774;2023-02-28T09:33:30;102678.22;;;16.99;20.37
13612;BME280;6877;51.436;6.774;2023-02-28T09:36:02;102682.06;;;17.35;19.13
13612;BME280;6877;51.436;6.774;2023-02-28T09:38:29;102680.47;;;16.62;20.46
13612;BME280;6877;51.436;6.774;2023-02-28T09:41:04;102674.53;;;17.08;20.21
13612;BME280;6877;51.436;6.774;2023-02-28T09:43:45;102683.09;;;15.82;20.13
13612;BME280;6877;51.436;6.774;2023-02-28T09:46:32;102683.06;;;14.46;21.50
13612;BME280;6877;51.436;6.774;2023-02-28T09:49:18;102678.69;;;14.54;21.66
13612;BME280;6877;51.436;6.774;2023-02-28T09:51:51;102674.75;;;15.29;21.26
13612;BME280;6877;51.436;6.774;2023-02-28T09:54:23;102674.38;;;15.77;20.90
13612;BME280;6877;51.436;6.774;2023-02-28T09:57:04;102673.59;;;15.64;20.72
13612;BME280;6877;51.436;6.774;2023-02-28T10:06:56;102670.06;;;13.16;23.02
13612;BME280;6877;51.436;6.774;2023-02-28T10:20:33;102679.75;;;7.10;30.73
13612;BME280;6877;51.436;6.774;2023-02-28T10:26:49;102671.97;;;6.79;32.63
13612;BME280;6877;51.436;6.774;2023-02-28T10:30:14;102665.38;;;7.25;31.10
13612;BME280;6877;51.436;6.774;2023-02-28T10:40:39;102669.94;;;6.10;33.52
13612;BME280;6877;51.436;6.774;2023-02-28T10:43:35;102665.34;;;5.74;34.68
13612;BME280;6877;51.436;6.774;2023-02-28T10:46:33;102664.03;;;6.44;33.63
13612;BME280;6877;51.436;6.774;2023-02-28T10:49:07;102661.06;;;6.32;33.85
13612;BME280;6877;51.436;6.774;2023-02-28T10:52:32;102647.84;;;6.86;32.68
13612;BME280;6877;51.436;6.774;2023-02-28T10:55:31;102652.56;;;6.67;33.17
13612;BME280;6877;51.436;6.774;2023-02-28T11:01:59;102645.59;;;7.68;31.51
13612;BME280;6877;51.436;6.774;2023-02-28T11:04:34;102642.41;;;6.77;33.00
13612;BME280;6877;51.436;6.774;2023-02-28T11:10:23;102637.56;;;7.24;33.38
13612;BME280;6877;51.436;6.774;2023-02-28T11:12:55;102642.03;;;8.85;30.61
13612;BME280;6877;51.436;6.774;2023-02-28T11:15:29;102648.88;;;7.97;30.09
13612;BME280;6877;51.436;6.774;2023-02-28T11:20:54;102656.00;;;5.53;33.17
13612;BME280;6877;51.436;6.774;2023-02-28T11:23:30;102657.41;;;4.69;35.02
13612;BME280;6877;51.436;6.774;2023-02-28T11:26:04;102654.81;;;4.22;35.92
13612;BME280;6877;51.436;6.774;2023-02-28T11:28:39;102638.63;;;3.83;36.80
13612;BME280;6877;51.436;6.774;2023-02-28T11:36:24;102640.25;;;3.81;37.86
13612;BME280;6877;51.436;6.774;2023-02-28T11:38:53;102645.28;;;3.99;37.55
13612;BME280;6877;51.436;6.774;2023-02-28T11:44:15;102632.81;;;3.88;38.10
13612;BME280;6877;51.436;6.774;2023-02-28T11:52:06;102637.59;;;3.57;38.54
13612;BME280;6877;51.436;6.774;2023-02-28T11:54:58;102637.41;;;3.52;38.84
13612;BME280;6877;51.436;6.774;2023-02-28T12:00:19;102643.81;;;3.62;38.60
13612;BME280;6877;51.436;6.774;2023-02-28T12:10:48;102618.00;;;3.63;39.00
13612;BME280;6877;51.436;6.774;2023-02-28T12:26:58;102593.81;;;4.08;38.95
13612;BME280;6877;51.436;6.774;2023-02-28T12:29:37;102589.22;;;4.23;39.01
13612;BME280;6877;51.436;6.774;2023-02-28T12:32:13;102589.91;;;4.19;39.23
13612;BME280;6877;51.436;6.774;2023-02-28T12:34:50;102580.28;;;4.15;39.13
13612;BME280;6877;51.436;6.774;2023-02-28T12:42:59;102571.53;;;4.13;39.82
13612;BME280;6877;51.436;6.774;2023-02-28T12:45:43;102577.75;;;4.16;39.55
13612;BME280;6877;51.436;6.774;2023-02-28T12:48:19;102568.63;;;4.04;39.37
13612;BME280;6877;51.436;6.774;2023-02-28T12:50:48;102569.09;;;3.93;40.23
13612;BME280;6877;51.436;6.774;2023-02-28T12:53:49;102563.13;;;3.94;40.17
13612;BME280;6877;51.436;6.774;2023-02-28T12:56:30;102554.88;;;4.06;40.36
13612;BME280;6877;51.436;6.774;2023-02-28T13:08:19;102547.59;;;3.96;39.63
13612;BME280;6877;51.436;6.774;2023-02-28T13:10:49;102537.38;;;3.99;40.72
13612;BME280;6877;51.436;6.774;2023-02-28T13:13:25;102555.47;;;4.22;40.56
13612;BME280;6877;51.436;6.774;2023-02-28T13:16:09;102525.13;;;4.19;40.30
13612;BME280;6877;51.436;6.774;2023-02-28T13:18:43;102528.34;;;4.12;40.38
13612;BME280;6877;51.436;6.774;2023-02-28T13:21:27;102530.19;;;4.16;40.48
13612;BME280;6877;51.436;6.774;2023-02-28T13:24:02;102516.66;;;4.23;40.72
13612;BME280;6877;51.436;6.774;2023-02-28T13:42:49;102509.34;;;4.61;41.23
13612;BME280;6877;51.436;6.774;2023-02-28T13:45:24;102505.47;;;4.50;40.59
13612;BME280;6877;51.436;6.774;2023-02-28T13:48:02;102506.03;;;4.41;41.17
13612;BME280;6877;51.436;6.774;2023-02-28T13:50:47;102512.56;;;4.30;41.50
13612;BME280;6877;51.436;6.774;2023-02-28T13:56:39;102507.50;;;4.33;42.60
13612;BME280;6877;51.436;6.774;2023-02-28T14:07:19;102512.78;;;4.36;42.93
13612;BME280;6877;51.436;6.774;2023-02-28T14:09:59;102518.63;;;4.30;43.64
13612;BME280;6877;51.436;6.774;2023-02-28T14:20:40;102509.13;;;4.31;43.56
13612;BME280;6877;51.436;6.774;2023-02-28T14:23:15;102504.63;;;4.25;43.69
13612;BME280;6877;51.436;6.774;2023-02-28T14:31:35;102494.34;;;4.28;43.83
13612;BME280;6877;51.436;6.774;2023-02-28T14:36:53;102504.69;;;4.27;43.93
13612;BME280;6877;51.436;6.774;2023-02-28T14:39:25;102490.09;;;4.29;44.02
13612;BME280;6877;51.436;6.774;2023-02-28T14:41:57;102498.13;;;4.36;43.75
13612;BME280;6877;51.436;6.774;2023-02-28T14:44:36;102498.56;;;4.25;43.83
13612;BME280;6877;51.436;6.774;2023-02-28T14:47:03;102496.81;;;4.24;44.45
13612;BME280;6877;51.436;6.774;2023-02-28T14:49:42;102482.03;;;4.21;44.83
13612;BME280;6877;51.436;6.774;2023-02-28T14:52:24;102480.25;;;4.20;44.96
13612;BME280;6877;51.436;6.774;2023-02-28T14:54:57;102480.94;;;4.14;45.21
13612;BME280;6877;51.436;6.774;2023-02-28T14:57:38;102474.97;;;4.17;45.92
13612;BME280;6877;51.436;6.774;2023-02-28T15:02:42;102479.59;;;4.26;45.50
13612;BME280;6877;51.436;6.774;2023-02-28T15:07:45;102492.38;;;4.21;44.54
13612;BME280;6877;51.436;6.774;2023-02-28T15:10:18;102487.72;;;4.11;44.82
13612;BME280;6877;51.436;6.774;2023-02-28T15:13:06;102483.25;;;4.07;45.00
13612;BME280;6877;51.436;6.774;2023-02-28T15:18:30;102478.88;;;4.06;44.66
13612;BME280;6877;51.436;6.774;2023-02-28T15:21:07;102481.25;;;4.00;44.48
13612;BME280;6877;51.436;6.774;2023-02-28T15:23:40;102481.31;;;4.01;45.73
13612;BME280;6877;51.436;6.774;2023-02-28T15:26:16;102479.38;;;3.95;46.27
13612;BME280;6877;51.436;6.774;2023-02-28T15:28:52;102477.78;;;3.99;46.69
13612;BME280;6877;51.436;6.774;2023-02-28T15:31:29;102483.25;;;4.07;46.85
13612;BME280;6877;51.436;6.774;2023-02-28T15:34:04;102490.19;;;4.08;46.94
13612;BME280;6877;51.436;6.774;2023-02-28T15:36:33;102484.13;;;4.07;46.80
13612;BME280;6877;51.436;6.774;2023-02-28T15:39:19;102482.13;;;4.00;46.26
13612;BME280;6877;51.436;6.774;2023-02-28T15:41:45;102480.09;;;3.91;46.40
13612;BME280;6877;51.436;6.774;2023-02-28T15:44:28;102475.50;;;3.84;46.60
13612;BME280;6877;51.436;6.774;2023-02-28T15:47:16;102482.47;;;3.85;46.64
13612;BME280;6877;51.436;6.774;2023-02-28T15:49:55;102479.00;;;3.85;46.88
13612;BME280;6877;51.436;6.774;2023-02-28T15:52:34;102477.19;;;3.82;46.88
13612;BME280;6877;51.436;6.774;2023-02-28T15:55:21;102478.81;;;3.80;46.90
13612;BME280;6877;51.436;6.774;2023-02-28T15:57:55;102478.78;;;3.79;46.88
13612;BME280;6877;51.436;6.774;2023-02-28T16:00:26;102482.13;;;3.76;46.71
13612;BME280;6877;51.436;6.774;2023-02-28T16:02:58;102481.94;;;3.71;46.91
13612;BME280;6877;51.436;6.774;2023-02-28T16:05:30;102484.50;;;3.70;46.97
13612;BME280;6877;51.436;6.774;2023-02-28T16:08:00;102486.19;;;3.69;47.28
13612;BME280;6877;51.436;6.774;2023-02-28T16:10:31;102489.56;;;3.67;47.91
13612;BME280;6877;51.436;6.774;2023-02-28T16:12:58;102480.03;;;3.66;47.89
13612;BME280;6877;51.436;6.774;2023-02-28T16:15:35;102486.78;;;3.62;48.18
13612;BME280;6877;51.436;6.774;2023-02-28T16:18:10;102494.25;;;3.55;48.94
13612;BME280;6877;51.436;6.774;2023-02-28T16:20:42;102488.25;;;3.56;48.70
13612;BME280;6877;51.436;6.774;2023-02-28T16:23:10;102488.25;;;3.56;49.02
13612;BME280;6877;51.436;6.774;2023-02-28T16:25:43;102488.13;;;3.53;49.48
13612;BME280;6877;51.436;6.774;2023-02-28T16:28:25;102494.97;;;3.51;49.75
13612;BME280;6877;51.436;6.774;2023-02-28T16:30:53;102490.44;;;3.45;50.38
13612;BME280;6877;51.436;6.774;2023-02-28T16:33:23;102497.97;;;3.39;51.05